ENT104T EPKK-LGSM
Flight info
| Callsign | ENT104T |
|---|---|
| Flight time | N/A |
| Altitude | 37000 |
| Route | BABKO DCT DEMOP DCT PARAK DCT PELOV DCT RAXAD DCT RUGAS UN128 FSK UG18 MES G18 URNIL |
| Aircraft | B738/M-SDE2E3FGHIRWXY/LB1 |
Departure
| Time | 2026-05-07 21:15 |
|---|---|
| Airport | Kraków John Paul II International Airport (EPKK) |
Arrival
| Time | N/A |
|---|---|
| Airport | Samos Airport (LGSM) |
| Time | Latitude | Longitude | Altitude | Speed | Heading |
|---|---|---|---|---|---|
| 2026-05-07 21:00 | 50.07492 | 19.80211 | 801 ft | 0 kts | 167° |
| 2026-05-07 21:11 | 50.07487 | 19.80213 | 800 ft | 1 kts | 167° |
| 2026-05-07 21:11 | 50.07478 | 19.80216 | 800 ft | 1 kts | 167° |
| 2026-05-07 21:11 | 50.07446 | 19.80235 | 800 ft | 3 kts | 136° |
| 2026-05-07 21:12 | 50.07438 | 19.80281 | 800 ft | 5 kts | 84° |
| 2026-05-07 21:12 | 50.07449 | 19.80349 | 800 ft | 7 kts | 56° |
| 2026-05-07 21:12 | 50.07502 | 19.80393 | 800 ft | 9 kts | 18° |
| 2026-05-07 21:12 | 50.07574 | 19.80420 | 800 ft | 11 kts | 5° |
| 2026-05-07 21:13 | 50.07659 | 19.80399 | 800 ft | 13 kts | 347° |
| 2026-05-07 21:13 | 50.07758 | 19.80366 | 800 ft | 15 kts | 349° |
| 2026-05-07 21:13 | 50.07871 | 19.80329 | 800 ft | 17 kts | 348° |
| 2026-05-07 21:13 | 50.07984 | 19.80291 | 800 ft | 11 kts | 347° |
| 2026-05-07 21:14 | 50.08011 | 19.80219 | 800 ft | 9 kts | 259° |
| 2026-05-07 21:14 | 50.07980 | 19.79981 | 800 ft | 50 kts | 258° |
| 2026-05-07 21:14 | 50.07859 | 19.79109 | 800 ft | 113 kts | 258° |
| 2026-05-07 21:14 | 50.07652 | 19.77637 | 801 ft | 166 kts | 258° |
| 2026-05-07 21:15 | 50.07374 | 19.75722 | 1064 ft | 186 kts | 257° |
| 2026-05-07 21:15 | 50.07081 | 19.73764 | 1670 ft | 188 kts | 256° |
| 2026-05-07 21:15 | 50.06795 | 19.71808 | 2145 ft | 188 kts | 258° |
| 2026-05-07 21:15 | 50.06527 | 19.69709 | 2289 ft | 208 kts | 257° |
| 2026-05-07 21:16 | 50.06198 | 19.67381 | 2397 ft | 233 kts | 253° |
| 2026-05-07 21:16 | 50.05362 | 19.65172 | 2768 ft | 243 kts | 217° |
| 2026-05-07 21:16 | 50.03863 | 19.64181 | 3340 ft | 243 kts | 182° |
| 2026-05-07 21:16 | 50.02161 | 19.64654 | 3740 ft | 253 kts | 159° |
| 2026-05-07 21:17 | 50.00507 | 19.65481 | 4400 ft | 256 kts | 165° |
| 2026-05-07 21:17 | 49.98764 | 19.66099 | 5046 ft | 259 kts | 167° |
| 2026-05-07 21:17 | 49.96998 | 19.66713 | 5710 ft | 262 kts | 167° |
| 2026-05-07 21:17 | 49.95244 | 19.67317 | 6404 ft | 262 kts | 167° |
| 2026-05-07 21:18 | 49.93466 | 19.67922 | 7078 ft | 264 kts | 168° |
| 2026-05-07 21:18 | 49.91671 | 19.68530 | 7745 ft | 266 kts | 168° |
| 2026-05-07 21:18 | 49.89852 | 19.69144 | 8405 ft | 269 kts | 169° |
| 2026-05-07 21:18 | 49.88027 | 19.69757 | 9055 ft | 272 kts | 170° |
| 2026-05-07 21:19 | 49.86154 | 19.70219 | 9699 ft | 275 kts | 174° |
| 2026-05-07 21:19 | 49.84260 | 19.70606 | 10276 ft | 281 kts | 174° |
| 2026-05-07 21:19 | 49.82268 | 19.71036 | 10367 ft | 305 kts | 174° |
| 2026-05-07 21:19 | 49.80094 | 19.71509 | 10534 ft | 325 kts | 174° |
| 2026-05-07 21:20 | 49.77782 | 19.72010 | 10580 ft | 347 kts | 174° |
| 2026-05-07 21:20 | 49.75343 | 19.72539 | 10962 ft | 358 kts | 174° |
| 2026-05-07 21:20 | 49.72839 | 19.73083 | 11368 ft | 367 kts | 174° |
| 2026-05-07 21:20 | 49.70347 | 19.73624 | 12025 ft | 369 kts | 174° |
| 2026-05-07 21:21 | 49.67770 | 19.74181 | 12577 ft | 374 kts | 174° |
| 2026-05-07 21:21 | 49.65222 | 19.74732 | 13186 ft | 377 kts | 174° |
| 2026-05-07 21:21 | 49.62622 | 19.75293 | 13754 ft | 381 kts | 174° |
| 2026-05-07 21:21 | 49.59984 | 19.75861 | 14339 ft | 385 kts | 175° |
| 2026-05-07 21:22 | 49.57334 | 19.76432 | 14898 ft | 389 kts | 175° |
| 2026-05-07 21:22 | 49.54626 | 19.77014 | 15461 ft | 392 kts | 175° |
| 2026-05-07 21:22 | 49.51923 | 19.77595 | 15990 ft | 396 kts | 175° |
| 2026-05-07 21:22 | 49.49193 | 19.78181 | 16513 ft | 400 kts | 175° |
| 2026-05-07 21:23 | 49.46432 | 19.78773 | 17013 ft | 404 kts | 175° |
| 2026-05-07 21:23 | 49.43631 | 19.79373 | 17506 ft | 408 kts | 175° |
| 2026-05-07 21:23 | 49.40838 | 19.79970 | 17976 ft | 411 kts | 175° |
| 2026-05-07 21:23 | 49.38023 | 19.80571 | 18439 ft | 415 kts | 175° |
| 2026-05-07 21:24 | 49.35156 | 19.81183 | 18888 ft | 418 kts | 175° |
| 2026-05-07 21:24 | 49.32258 | 19.81801 | 19322 ft | 422 kts | 175° |
| 2026-05-07 21:24 | 49.29349 | 19.82420 | 19754 ft | 425 kts | 175° |
| 2026-05-07 21:24 | 49.26414 | 19.83044 | 20178 ft | 428 kts | 175° |
| 2026-05-07 21:25 | 49.23479 | 19.83667 | 20571 ft | 432 kts | 175° |
| 2026-05-07 21:25 | 49.20496 | 19.84300 | 20967 ft | 435 kts | 175° |
| 2026-05-07 21:25 | 49.17484 | 19.84938 | 21353 ft | 438 kts | 175° |
| 2026-05-07 21:25 | 49.14468 | 19.85576 | 21727 ft | 441 kts | 175° |
| 2026-05-07 21:26 | 49.11445 | 19.86215 | 22073 ft | 445 kts | 175° |
| 2026-05-07 21:26 | 49.08360 | 19.86865 | 22342 ft | 450 kts | 175° |
| 2026-05-07 21:26 | 49.05281 | 19.87514 | 22630 ft | 454 kts | 175° |
| 2026-05-07 21:26 | 49.02158 | 19.88171 | 22890 ft | 459 kts | 175° |
| 2026-05-07 21:27 | 48.98969 | 19.88842 | 23180 ft | 463 kts | 175° |
| 2026-05-07 21:27 | 48.95783 | 19.89511 | 23445 ft | 467 kts | 174° |
| 2026-05-07 21:27 | 48.92574 | 19.90185 | 23768 ft | 470 kts | 174° |
| 2026-05-07 21:27 | 48.89299 | 19.90871 | 24090 ft | 473 kts | 174° |
| 2026-05-07 21:28 | 48.86052 | 19.91551 | 24380 ft | 476 kts | 174° |
| 2026-05-07 21:28 | 48.82791 | 19.92233 | 24674 ft | 478 kts | 174° |
| 2026-05-07 21:28 | 48.79480 | 19.92923 | 24980 ft | 480 kts | 174° |
| 2026-05-07 21:28 | 48.76174 | 19.93613 | 25246 ft | 483 kts | 174° |
| 2026-05-07 21:29 | 48.72851 | 19.94304 | 25502 ft | 486 kts | 174° |
| 2026-05-07 21:29 | 48.69495 | 19.95002 | 25784 ft | 487 kts | 174° |
| 2026-05-07 21:29 | 48.66167 | 19.95692 | 26037 ft | 490 kts | 174° |
| 2026-05-07 21:29 | 48.62775 | 19.96395 | 26294 ft | 492 kts | 174° |
| 2026-05-07 21:30 | 48.59381 | 19.97098 | 26511 ft | 495 kts | 174° |
| 2026-05-07 21:30 | 48.56016 | 19.97794 | 26872 ft | 493 kts | 174° |
| 2026-05-07 21:30 | 48.52609 | 19.98498 | 27281 ft | 491 kts | 174° |
| 2026-05-07 21:30 | 48.49248 | 19.99191 | 27559 ft | 492 kts | 174° |
| 2026-05-07 21:31 | 48.45896 | 19.99881 | 27903 ft | 492 kts | 174° |
| 2026-05-07 21:31 | 48.42501 | 20.00579 | 28221 ft | 492 kts | 174° |
| 2026-05-07 21:31 | 48.39149 | 20.01267 | 28550 ft | 491 kts | 174° |
| 2026-05-07 21:31 | 48.35730 | 20.01968 | 28829 ft | 492 kts | 174° |
| 2026-05-07 21:32 | 48.32382 | 20.02653 | 29173 ft | 491 kts | 174° |
| 2026-05-07 21:32 | 48.29006 | 20.03344 | 29455 ft | 491 kts | 174° |
| 2026-05-07 21:32 | 48.25625 | 20.04033 | 29699 ft | 492 kts | 174° |
| 2026-05-07 21:32 | 48.22270 | 20.04695 | 29930 ft | 493 kts | 175° |
| 2026-05-07 21:33 | 48.18837 | 20.05369 | 30203 ft | 493 kts | 174° |
| 2026-05-07 21:33 | 48.15487 | 20.06067 | 30551 ft | 492 kts | 173° |
| 2026-05-07 21:33 | 48.12119 | 20.06950 | 30899 ft | 490 kts | 171° |
| 2026-05-07 21:33 | 48.08786 | 20.07906 | 31191 ft | 490 kts | 171° |
| 2026-05-07 21:34 | 48.05476 | 20.08836 | 31420 ft | 491 kts | 171° |
| 2026-05-07 21:34 | 48.02119 | 20.09755 | 31693 ft | 490 kts | 171° |
| 2026-05-07 21:34 | 47.98792 | 20.10657 | 31930 ft | 491 kts | 172° |
| 2026-05-07 21:34 | 47.95417 | 20.11558 | 32114 ft | 492 kts | 172° |
| 2026-05-07 21:35 | 47.92031 | 20.12458 | 32269 ft | 495 kts | 172° |
| 2026-05-07 21:35 | 47.88663 | 20.13347 | 32384 ft | 498 kts | 172° |
| 2026-05-07 21:35 | 47.85265 | 20.14243 | 32585 ft | 498 kts | 172° |
| 2026-05-07 21:35 | 47.81851 | 20.15157 | 32885 ft | 496 kts | 171° |
| 2026-05-07 21:36 | 47.78498 | 20.16046 | 33187 ft | 494 kts | 172° |
| 2026-05-07 21:36 | 47.75115 | 20.16933 | 33493 ft | 491 kts | 172° |
| 2026-05-07 21:36 | 47.71790 | 20.17792 | 33731 ft | 491 kts | 172° |
| 2026-05-07 21:36 | 47.68454 | 20.18644 | 33923 ft | 491 kts | 172° |
| 2026-05-07 21:37 | 47.65060 | 20.19490 | 34057 ft | 492 kts | 172° |
| 2026-05-07 21:37 | 47.61704 | 20.20315 | 34206 ft | 494 kts | 172° |
| 2026-05-07 21:37 | 47.58308 | 20.21160 | 34323 ft | 495 kts | 172° |
| 2026-05-07 21:37 | 47.54959 | 20.22018 | 34446 ft | 497 kts | 172° |
| 2026-05-07 21:38 | 47.51533 | 20.22911 | 34678 ft | 496 kts | 171° |
| 2026-05-07 21:38 | 47.48153 | 20.23783 | 34949 ft | 494 kts | 172° |
| 2026-05-07 21:38 | 47.44824 | 20.24626 | 35194 ft | 492 kts | 172° |
| 2026-05-07 21:38 | 47.41461 | 20.25473 | 35422 ft | 491 kts | 172° |
| 2026-05-07 21:39 | 47.38107 | 20.26323 | 35629 ft | 490 kts | 172° |
| 2026-05-07 21:39 | 47.34782 | 20.27187 | 35817 ft | 489 kts | 171° |
| 2026-05-07 21:39 | 47.28083 | 20.28987 | 36030 ft | 492 kts | 171° |
| 2026-05-07 21:40 | 47.24714 | 20.29887 | 36184 ft | 492 kts | 171° |
| 2026-05-07 21:40 | 47.21397 | 20.30761 | 36379 ft | 491 kts | 171° |
| 2026-05-07 21:40 | 47.18054 | 20.31628 | 36575 ft | 490 kts | 171° |
| 2026-05-07 21:40 | 47.14711 | 20.32498 | 36725 ft | 490 kts | 171° |
| 2026-05-07 21:41 | 47.11360 | 20.33358 | 36857 ft | 490 kts | 172° |
| 2026-05-07 21:41 | 47.08002 | 20.34187 | 36976 ft | 490 kts | 172° |
| 2026-05-07 21:41 | 47.01268 | 20.35820 | 37048 ft | 494 kts | 172° |
| 2026-05-07 21:42 | 46.94505 | 20.37544 | 37047 ft | 497 kts | 171° |
| 2026-05-07 21:42 | 46.87829 | 20.39245 | 37047 ft | 501 kts | 171° |
| 2026-05-07 21:43 | 46.80965 | 20.40974 | 37046 ft | 503 kts | 171° |
| 2026-05-07 21:43 | 46.74091 | 20.42704 | 37046 ft | 502 kts | 171° |
| 2026-05-07 21:44 | 46.67240 | 20.44423 | 37047 ft | 501 kts | 171° |
| 2026-05-07 21:44 | 46.60376 | 20.46140 | 37047 ft | 502 kts | 171° |
| 2026-05-07 21:45 | 46.53561 | 20.47840 | 37047 ft | 502 kts | 171° |
| 2026-05-07 21:45 | 46.46695 | 20.49549 | 37047 ft | 502 kts | 171° |
| 2026-05-07 21:46 | 46.39851 | 20.51248 | 37047 ft | 502 kts | 171° |
| 2026-05-07 21:46 | 46.32975 | 20.52951 | 37047 ft | 502 kts | 171° |
| 2026-05-07 21:47 | 46.26103 | 20.54647 | 37047 ft | 502 kts | 171° |
| 2026-05-07 21:47 | 46.19262 | 20.56333 | 37047 ft | 502 kts | 171° |
| 2026-05-07 21:48 | 46.12413 | 20.58015 | 37047 ft | 502 kts | 171° |
| 2026-05-07 21:48 | 46.05583 | 20.59689 | 37047 ft | 502 kts | 171° |
| 2026-05-07 21:49 | 45.98695 | 20.61373 | 37047 ft | 502 kts | 171° |
| 2026-05-07 21:49 | 45.91830 | 20.63047 | 37047 ft | 502 kts | 171° |
| 2026-05-07 21:50 | 45.84957 | 20.64719 | 37047 ft | 501 kts | 171° |
| 2026-05-07 21:50 | 45.78257 | 20.66343 | 37047 ft | 501 kts | 172° |
| 2026-05-07 21:51 | 45.71404 | 20.68002 | 37047 ft | 502 kts | 172° |
| 2026-05-07 21:51 | 45.64546 | 20.69657 | 37047 ft | 502 kts | 172° |
| 2026-05-07 21:52 | 45.57692 | 20.71308 | 37047 ft | 502 kts | 172° |
| 2026-05-07 21:52 | 45.50843 | 20.72953 | 37047 ft | 502 kts | 172° |
| 2026-05-07 21:53 | 45.43964 | 20.74601 | 37047 ft | 502 kts | 172° |
| 2026-05-07 21:53 | 45.37107 | 20.76240 | 37047 ft | 502 kts | 172° |
| 2026-05-07 21:54 | 45.30271 | 20.77870 | 37047 ft | 502 kts | 172° |
| 2026-05-07 21:54 | 45.23420 | 20.79499 | 37047 ft | 502 kts | 172° |
| 2026-05-07 21:55 | 45.16536 | 20.81133 | 37047 ft | 502 kts | 172° |
| 2026-05-07 21:55 | 45.09693 | 20.82752 | 37047 ft | 502 kts | 172° |
| 2026-05-07 21:56 | 45.02828 | 20.84373 | 37046 ft | 501 kts | 172° |
| 2026-05-07 21:56 | 44.96069 | 20.86284 | 37045 ft | 500 kts | 164° |
| 2026-05-07 21:57 | 44.89544 | 20.89542 | 37047 ft | 499 kts | 159° |
| 2026-05-07 21:57 | 44.83025 | 20.92987 | 37046 ft | 496 kts | 160° |
| 2026-05-07 21:58 | 44.76670 | 20.96367 | 37046 ft | 491 kts | 160° |
| 2026-05-07 21:58 | 44.70336 | 20.99833 | 37048 ft | 488 kts | 160° |
| 2026-05-07 21:59 | 44.64070 | 21.03264 | 37046 ft | 484 kts | 160° |
| 2026-05-07 21:59 | 44.57831 | 21.06662 | 37048 ft | 480 kts | 161° |
| 2026-05-07 22:00 | 44.51616 | 21.09966 | 37046 ft | 476 kts | 161° |
| 2026-05-07 22:00 | 44.45504 | 21.13184 | 37049 ft | 472 kts | 161° |
| 2026-05-07 22:01 | 44.39362 | 21.16439 | 37057 ft | 472 kts | 160° |
| 2026-05-07 22:01 | 44.33235 | 21.19696 | 37062 ft | 474 kts | 161° |
| 2026-05-07 22:02 | 44.27118 | 21.22954 | 37064 ft | 473 kts | 161° |
| 2026-05-07 22:02 | 44.20989 | 21.26228 | 37069 ft | 473 kts | 160° |
| 2026-05-07 22:03 | 44.14879 | 21.29478 | 37075 ft | 473 kts | 161° |
| 2026-05-07 22:03 | 44.08743 | 21.32746 | 37074 ft | 474 kts | 160° |
| 2026-05-07 22:04 | 44.02620 | 21.36043 | 37073 ft | 473 kts | 160° |
| 2026-05-07 22:04 | 43.96542 | 21.39333 | 37075 ft | 472 kts | 160° |
| 2026-05-07 22:05 | 43.90427 | 21.42591 | 37074 ft | 473 kts | 160° |
| 2026-05-07 22:05 | 43.84258 | 21.45867 | 37073 ft | 474 kts | 160° |
| 2026-05-07 22:06 | 43.78109 | 21.49124 | 37074 ft | 474 kts | 161° |
| 2026-05-07 22:06 | 43.71967 | 21.52316 | 37074 ft | 473 kts | 161° |
| 2026-05-07 22:07 | 43.65822 | 21.55518 | 37074 ft | 474 kts | 160° |
| 2026-05-07 22:07 | 43.59697 | 21.58723 | 37073 ft | 474 kts | 161° |
| 2026-05-07 22:08 | 43.53555 | 21.61904 | 37074 ft | 474 kts | 160° |
| 2026-05-07 22:08 | 43.47394 | 21.65096 | 37074 ft | 474 kts | 161° |
| 2026-05-07 22:09 | 43.41244 | 21.68316 | 37074 ft | 472 kts | 161° |
| 2026-05-07 22:09 | 43.35136 | 21.71494 | 37074 ft | 473 kts | 161° |
| 2026-05-07 22:10 | 43.28998 | 21.74665 | 37074 ft | 473 kts | 161° |
| 2026-05-07 22:10 | 43.22836 | 21.77832 | 37075 ft | 473 kts | 161° |
| 2026-05-07 22:11 | 43.16716 | 21.80958 | 37076 ft | 474 kts | 161° |
| 2026-05-07 22:11 | 43.10565 | 21.84099 | 37073 ft | 474 kts | 161° |
| 2026-05-07 22:12 | 43.04398 | 21.87261 | 37073 ft | 473 kts | 161° |
| 2026-05-07 22:12 | 42.98275 | 21.90380 | 37074 ft | 473 kts | 161° |
| 2026-05-07 22:13 | 42.92138 | 21.93539 | 37074 ft | 474 kts | 161° |
| 2026-05-07 22:13 | 42.85971 | 21.96680 | 37074 ft | 473 kts | 161° |
| 2026-05-07 22:14 | 42.79843 | 21.99812 | 37074 ft | 473 kts | 162° |
| 2026-05-07 22:14 | 42.73650 | 22.02866 | 37074 ft | 474 kts | 162° |
| 2026-05-07 22:15 | 42.67504 | 22.05854 | 37106 ft | 473 kts | 162° |
| 2026-05-07 22:15 | 42.61340 | 22.08905 | 37117 ft | 474 kts | 162° |
| 2026-05-07 22:16 | 42.55177 | 22.12001 | 37124 ft | 473 kts | 162° |
| 2026-05-07 22:16 | 42.49010 | 22.15100 | 37124 ft | 474 kts | 162° |
| 2026-05-07 22:17 | 42.42867 | 22.18187 | 37125 ft | 473 kts | 162° |
| 2026-05-07 22:17 | 42.36740 | 22.21244 | 37127 ft | 473 kts | 162° |
| 2026-05-07 22:18 | 42.27489 | 22.25963 | 37128 ft | 475 kts | 159° |
| 2026-05-07 22:19 | 42.21470 | 22.29528 | 37128 ft | 474 kts | 158° |
| 2026-05-07 22:19 | 42.15455 | 22.33032 | 37128 ft | 473 kts | 158° |
| 2026-05-07 22:20 | 42.09418 | 22.36513 | 37129 ft | 474 kts | 159° |
| 2026-05-07 22:20 | 42.03311 | 22.39894 | 37128 ft | 475 kts | 159° |
| 2026-05-07 22:21 | 41.97244 | 22.43313 | 37127 ft | 474 kts | 158° |
| 2026-05-07 22:21 | 41.91221 | 22.46757 | 37129 ft | 473 kts | 159° |
| 2026-05-07 22:22 | 41.85139 | 22.50195 | 37128 ft | 475 kts | 159° |
| 2026-05-07 22:22 | 41.79028 | 22.53663 | 37125 ft | 474 kts | 159° |
| 2026-05-07 22:23 | 41.73002 | 22.57031 | 37128 ft | 473 kts | 159° |
| 2026-05-07 22:23 | 41.66944 | 22.60416 | 37130 ft | 475 kts | 159° |
| 2026-05-07 22:24 | 41.60848 | 22.63797 | 37127 ft | 475 kts | 159° |
| 2026-05-07 22:24 | 41.54760 | 22.67151 | 37127 ft | 473 kts | 160° |
| 2026-05-07 22:25 | 41.48727 | 22.70525 | 37129 ft | 473 kts | 159° |
| 2026-05-07 22:25 | 41.42682 | 22.73868 | 37128 ft | 474 kts | 160° |
| 2026-05-07 22:26 | 41.36607 | 22.77223 | 37128 ft | 473 kts | 159° |
| 2026-05-07 22:26 | 41.30710 | 22.81129 | 37130 ft | 476 kts | 149° |
| 2026-05-07 22:27 | 41.25243 | 22.85960 | 37127 ft | 477 kts | 149° |
| 2026-05-07 22:27 | 41.19691 | 22.90724 | 37128 ft | 475 kts | 150° |
| 2026-05-07 22:28 | 41.14140 | 22.95444 | 37126 ft | 474 kts | 149° |
| 2026-05-07 22:28 | 41.08712 | 23.00301 | 37128 ft | 475 kts | 146° |
| 2026-05-07 22:29 | 41.03608 | 23.05863 | 37127 ft | 471 kts | 143° |
| 2026-05-07 22:29 | 40.98589 | 23.11303 | 37127 ft | 467 kts | 145° |
| 2026-05-07 22:30 | 40.93576 | 23.16678 | 37128 ft | 464 kts | 144° |
| 2026-05-07 22:30 | 40.88579 | 23.22062 | 37128 ft | 465 kts | 145° |
| 2026-05-07 22:31 | 40.83668 | 23.27325 | 37128 ft | 466 kts | 144° |
| 2026-05-07 22:31 | 40.78670 | 23.32672 | 37128 ft | 465 kts | 144° |
| 2026-05-07 22:32 | 40.73636 | 23.38044 | 37128 ft | 465 kts | 144° |
| 2026-05-07 22:32 | 40.68615 | 23.43391 | 37128 ft | 465 kts | 144° |
| 2026-05-07 22:33 | 40.63598 | 23.48723 | 37128 ft | 465 kts | 144° |
| 2026-05-07 22:33 | 40.58593 | 23.54030 | 37128 ft | 466 kts | 144° |
| 2026-05-07 22:34 | 40.53563 | 23.59354 | 37128 ft | 465 kts | 144° |
| 2026-05-07 22:34 | 40.48537 | 23.64662 | 37128 ft | 465 kts | 145° |
| 2026-05-07 22:35 | 40.43501 | 23.69971 | 37128 ft | 465 kts | 145° |
| 2026-05-07 22:35 | 40.38473 | 23.75260 | 37128 ft | 465 kts | 145° |
| 2026-05-07 22:36 | 40.33441 | 23.80544 | 37124 ft | 465 kts | 146° |
| 2026-05-07 22:36 | 40.28415 | 23.85811 | 37117 ft | 465 kts | 145° |
| 2026-05-07 22:37 | 40.23383 | 23.91073 | 37112 ft | 465 kts | 145° |
| 2026-05-07 22:37 | 40.18332 | 23.96346 | 37106 ft | 465 kts | 145° |
| 2026-05-07 22:38 | 40.13303 | 24.01585 | 37101 ft | 465 kts | 145° |
| 2026-05-07 22:38 | 40.08273 | 24.06814 | 37101 ft | 465 kts | 145° |
| 2026-05-07 22:39 | 40.03215 | 24.12063 | 37101 ft | 465 kts | 145° |
| 2026-05-07 22:39 | 39.98147 | 24.17311 | 37102 ft | 465 kts | 146° |
| 2026-05-07 22:40 | 39.93123 | 24.22504 | 37102 ft | 465 kts | 145° |
| 2026-05-07 22:40 | 39.88039 | 24.27748 | 37101 ft | 465 kts | 145° |
| 2026-05-07 22:41 | 39.82970 | 24.32967 | 37101 ft | 465 kts | 145° |
| 2026-05-07 22:41 | 39.77933 | 24.38144 | 37100 ft | 465 kts | 145° |
| 2026-05-07 22:42 | 39.72884 | 24.43321 | 37101 ft | 465 kts | 145° |
| 2026-05-07 22:42 | 39.67796 | 24.48530 | 37101 ft | 465 kts | 145° |
| 2026-05-07 22:43 | 39.62734 | 24.53702 | 37101 ft | 465 kts | 145° |
| 2026-05-07 22:43 | 39.57681 | 24.58855 | 37101 ft | 465 kts | 145° |
| 2026-05-07 22:44 | 39.52614 | 24.64011 | 37101 ft | 465 kts | 145° |
| 2026-05-07 22:44 | 39.47536 | 24.69169 | 37101 ft | 465 kts | 146° |
| 2026-05-07 22:45 | 39.42461 | 24.74310 | 37101 ft | 464 kts | 146° |
| 2026-05-07 22:45 | 39.37394 | 24.79433 | 37101 ft | 464 kts | 146° |
| 2026-05-07 22:46 | 39.32323 | 24.84552 | 37101 ft | 464 kts | 146° |
| 2026-05-07 22:46 | 39.27243 | 24.89669 | 37101 ft | 464 kts | 146° |
| 2026-05-07 22:47 | 39.22178 | 24.94763 | 37101 ft | 465 kts | 146° |
| 2026-05-07 22:47 | 39.17078 | 24.99882 | 37101 ft | 466 kts | 146° |
| 2026-05-07 22:48 | 39.11957 | 25.05015 | 37101 ft | 469 kts | 146° |
| 2026-05-07 22:48 | 39.06807 | 25.10169 | 37101 ft | 471 kts | 145° |
| 2026-05-07 22:49 | 39.01654 | 25.15315 | 37101 ft | 473 kts | 145° |
| 2026-05-07 22:49 | 38.96474 | 25.20479 | 37102 ft | 473 kts | 144° |
| 2026-05-07 22:50 | 38.91301 | 25.25627 | 37101 ft | 472 kts | 145° |
| 2026-05-07 22:50 | 38.86135 | 25.30756 | 37101 ft | 471 kts | 145° |
| 2026-05-07 22:51 | 38.81052 | 25.35794 | 37101 ft | 471 kts | 145° |
| 2026-05-07 22:51 | 38.75900 | 25.40890 | 37101 ft | 471 kts | 145° |
| 2026-05-07 22:51 | 38.73308 | 25.43450 | 36994 ft | 474 kts | 145° |
| 2026-05-07 22:52 | 38.70700 | 25.46023 | 36736 ft | 474 kts | 145° |
| 2026-05-07 22:52 | 38.68115 | 25.48572 | 36486 ft | 472 kts | 145° |
| 2026-05-07 22:52 | 38.65539 | 25.51112 | 36235 ft | 469 kts | 145° |
| 2026-05-07 22:52 | 38.62966 | 25.53645 | 35985 ft | 468 kts | 145° |
| 2026-05-07 22:53 | 38.60397 | 25.56170 | 35736 ft | 468 kts | 145° |
| 2026-05-07 22:53 | 38.57809 | 25.58712 | 35485 ft | 468 kts | 145° |
| 2026-05-07 22:53 | 38.55244 | 25.61229 | 35237 ft | 468 kts | 145° |
| 2026-05-07 22:53 | 38.52657 | 25.63765 | 34986 ft | 468 kts | 145° |
| 2026-05-07 22:54 | 38.50101 | 25.66269 | 34738 ft | 468 kts | 146° |
| 2026-05-07 22:54 | 38.47504 | 25.68811 | 34486 ft | 468 kts | 146° |
| 2026-05-07 22:54 | 38.44946 | 25.71311 | 33967 ft | 470 kts | 146° |
| 2026-05-07 22:54 | 38.42351 | 25.73848 | 33161 ft | 469 kts | 145° |
| 2026-05-07 22:55 | 38.39791 | 25.76350 | 32332 ft | 470 kts | 145° |
| 2026-05-07 22:55 | 38.37189 | 25.78891 | 31463 ft | 470 kts | 145° |
| 2026-05-07 22:55 | 38.34606 | 25.81410 | 30570 ft | 470 kts | 145° |
| 2026-05-07 22:55 | 38.32052 | 25.83894 | 29661 ft | 471 kts | 145° |
| 2026-05-07 22:56 | 38.29438 | 25.86434 | 28696 ft | 472 kts | 145° |
| 2026-05-07 22:56 | 38.26840 | 25.88957 | 27700 ft | 473 kts | 145° |
| 2026-05-07 22:56 | 38.24248 | 25.91496 | 26878 ft | 470 kts | 143° |
| 2026-05-07 22:56 | 38.21777 | 25.94161 | 26207 ft | 464 kts | 140° |
| 2026-05-07 22:57 | 38.19422 | 25.96855 | 25514 ft | 461 kts | 140° |
| 2026-05-07 22:57 | 38.17016 | 25.99575 | 24799 ft | 460 kts | 141° |
| 2026-05-07 22:57 | 38.14639 | 26.02223 | 24086 ft | 455 kts | 141° |
| 2026-05-07 22:57 | 38.12289 | 26.04832 | 23379 ft | 449 kts | 141° |
| 2026-05-07 22:58 | 38.09972 | 26.07406 | 22676 ft | 443 kts | 141° |
| 2026-05-07 22:58 | 38.07661 | 26.09969 | 21972 ft | 438 kts | 141° |
| 2026-05-07 22:58 | 38.05418 | 26.12452 | 21281 ft | 433 kts | 141° |
| 2026-05-07 22:58 | 38.03149 | 26.14958 | 20574 ft | 428 kts | 141° |
| 2026-05-07 22:59 | 38.00935 | 26.17401 | 19880 ft | 423 kts | 141° |
| 2026-05-07 22:59 | 37.98727 | 26.19835 | 19180 ft | 418 kts | 141° |
| 2026-05-07 22:59 | 37.96565 | 26.22215 | 18489 ft | 414 kts | 141° |
| 2026-05-07 22:59 | 37.94415 | 26.24579 | 17800 ft | 410 kts | 141° |
| 2026-05-07 23:00 | 37.92276 | 26.26930 | 17111 ft | 405 kts | 141° |
| 2026-05-07 23:00 | 37.90179 | 26.29232 | 16430 ft | 401 kts | 141° |
| 2026-05-07 23:00 | 37.88074 | 26.31541 | 15753 ft | 397 kts | 141° |
| 2026-05-07 23:00 | 37.85995 | 26.33819 | 15082 ft | 393 kts | 141° |
| 2026-05-07 23:01 | 37.83952 | 26.36050 | 14416 ft | 389 kts | 141° |
| 2026-05-07 23:01 | 37.81934 | 26.38250 | 13762 ft | 385 kts | 141° |
| 2026-05-07 23:01 | 37.79923 | 26.40442 | 13107 ft | 381 kts | 141° |
| 2026-05-07 23:01 | 37.77927 | 26.42616 | 12448 ft | 377 kts | 141° |
| 2026-05-07 23:02 | 37.75960 | 26.44757 | 11788 ft | 374 kts | 141° |
| 2026-05-07 23:02 | 37.73991 | 26.46898 | 11095 ft | 371 kts | 140° |
| 2026-05-07 23:02 | 37.72077 | 26.48979 | 10803 ft | 357 kts | 140° |
| 2026-05-07 23:02 | 37.70256 | 26.50959 | 10615 ft | 342 kts | 140° |
| 2026-05-07 23:03 | 37.68475 | 26.52891 | 10454 ft | 327 kts | 140° |
| 2026-05-07 23:03 | 37.66775 | 26.54706 | 10181 ft | 318 kts | 141° |
| 2026-05-07 23:03 | 37.65103 | 26.56472 | 9784 ft | 314 kts | 141° |
| 2026-05-07 23:03 | 37.63451 | 26.58222 | 9379 ft | 311 kts | 141° |
| 2026-05-07 23:04 | 37.61801 | 26.59971 | 8974 ft | 307 kts | 140° |
| 2026-05-07 23:04 | 37.60199 | 26.61713 | 8579 ft | 304 kts | 139° |
| 2026-05-07 23:04 | 37.58612 | 26.63446 | 8186 ft | 301 kts | 139° |
| 2026-05-07 23:04 | 37.57040 | 26.65152 | 7713 ft | 301 kts | 140° |
| 2026-05-07 23:05 | 37.55424 | 26.66899 | 7243 ft | 300 kts | 140° |
| 2026-05-07 23:05 | 37.53858 | 26.68587 | 6841 ft | 297 kts | 140° |
| 2026-05-07 23:05 | 37.52303 | 26.70261 | 6451 ft | 294 kts | 140° |
| 2026-05-07 23:05 | 37.50740 | 26.71940 | 5994 ft | 294 kts | 140° |
| 2026-05-07 23:06 | 37.49229 | 26.73617 | 5568 ft | 288 kts | 134° |
| 2026-05-07 23:06 | 37.48149 | 26.75651 | 5209 ft | 278 kts | 114° |
| 2026-05-07 23:06 | 37.47400 | 26.77855 | 4890 ft | 270 kts | 112° |
| 2026-05-07 23:06 | 37.46664 | 26.80007 | 4646 ft | 264 kts | 113° |
| 2026-05-07 23:07 | 37.45944 | 26.82103 | 4382 ft | 259 kts | 113° |
| 2026-05-07 23:07 | 37.45232 | 26.84174 | 4073 ft | 255 kts | 113° |
| 2026-05-07 23:07 | 37.44732 | 26.86275 | 3754 ft | 247 kts | 96° |
| 2026-05-07 23:07 | 37.44589 | 26.88386 | 3426 ft | 238 kts | 94° |
| 2026-05-07 23:08 | 37.44603 | 26.90416 | 3099 ft | 226 kts | 76° |
| 2026-05-07 23:08 | 37.45289 | 26.92081 | 2755 ft | 211 kts | 43° |
| 2026-05-07 23:08 | 37.46524 | 26.92881 | 2526 ft | 193 kts | 6° |
| 2026-05-07 23:08 | 37.47784 | 26.92687 | 2385 ft | 175 kts | 346° |
| 2026-05-07 23:09 | 37.48931 | 26.92273 | 2269 ft | 172 kts | 338° |
| 2026-05-07 23:09 | 37.50035 | 26.91675 | 2103 ft | 174 kts | 337° |
| 2026-05-07 23:09 | 37.51146 | 26.91071 | 1926 ft | 173 kts | 337° |
| 2026-05-07 23:09 | 37.52228 | 26.90489 | 1904 ft | 171 kts | 340° |
| 2026-05-07 23:10 | 37.53394 | 26.90290 | 1893 ft | 164 kts | 1° |
| 2026-05-07 23:10 | 37.54527 | 26.90326 | 1890 ft | 162 kts | 1° |
| 2026-05-07 23:10 | 37.55650 | 26.90353 | 1903 ft | 158 kts | 1° |
| 2026-05-07 23:10 | 37.56713 | 26.90379 | 1896 ft | 149 kts | 1° |
| 2026-05-07 23:11 | 37.57754 | 26.90403 | 1767 ft | 150 kts | 1° |
| 2026-05-07 23:11 | 37.58792 | 26.90358 | 1568 ft | 148 kts | 346° |
| 2026-05-07 23:11 | 37.59722 | 26.89835 | 1380 ft | 148 kts | 336° |
| 2026-05-07 23:11 | 37.60693 | 26.89391 | 1174 ft | 148 kts | 347° |
| 2026-05-07 23:12 | 37.61710 | 26.89173 | 980 ft | 147 kts | 349° |
| 2026-05-07 23:12 | 37.62707 | 26.88884 | 809 ft | 147 kts | 347° |
| 2026-05-07 23:12 | 37.63688 | 26.88600 | 800 ft | 146 kts | 348° |
| 2026-05-07 23:12 | 37.64706 | 26.88386 | 788 ft | 148 kts | 352° |
| 2026-05-07 23:13 | 37.65728 | 26.88231 | 731 ft | 148 kts | 353° |
| 2026-05-07 23:13 | 37.66742 | 26.88028 | 601 ft | 148 kts | 353° |
| 2026-05-07 23:13 | 37.67766 | 26.88103 | 515 ft | 147 kts | 13° |
| 2026-05-07 23:13 | 37.68660 | 26.88680 | 475 ft | 147 kts | 46° |
| 2026-05-07 23:14 | 37.69080 | 26.89842 | 352 ft | 153 kts | 85° |
| 2026-05-07 23:14 | 37.69107 | 26.91150 | 671 ft | 146 kts | 89° |
| 2026-05-07 23:14 | 37.69096 | 26.92454 | 873 ft | 151 kts | 92° |
| 2026-05-07 23:14 | 37.69017 | 26.93783 | 631 ft | 151 kts | 96° |
| 2026-05-07 23:15 | 37.68903 | 26.95087 | 561 ft | 152 kts | 96° |